sensor_id;sensor_type;location;lat;lon;timestamp;P1;durP1;ratioP1;P2;durP2;ratioP2
73940;SDS011;62294;48.554;10.202;2023-01-08T00:02:12;16.65;;;7.82;;
73940;SDS011;62294;48.554;10.202;2023-01-08T00:04:38;19.92;;;8.60;;
73940;SDS011;62294;48.554;10.202;2023-01-08T00:07:05;14.10;;;6.93;;
73940;SDS011;62294;48.554;10.202;2023-01-08T00:09:32;16.92;;;7.53;;
73940;SDS011;62294;48.554;10.202;2023-01-08T00:11:58;14.30;;;7.40;;
73940;SDS011;62294;48.554;10.202;2023-01-08T00:14:25;16.85;;;7.75;;
73940;SDS011;62294;48.554;10.202;2023-01-08T00:16:51;17.27;;;7.88;;
73940;SDS011;62294;48.554;10.202;2023-01-08T00:19:18;15.13;;;7.05;;
73940;SDS011;62294;48.554;10.202;2023-01-08T00:21:45;15.38;;;8.35;;
73940;SDS011;62294;48.554;10.202;2023-01-08T00:24:11;14.10;;;7.28;;
73940;SDS011;62294;48.554;10.202;2023-01-08T00:26:38;14.45;;;7.43;;
73940;SDS011;62294;48.554;10.202;2023-01-08T00:29:04;17.77;;;7.38;;
73940;SDS011;62294;48.554;10.202;2023-01-08T00:31:31;13.63;;;7.13;;
73940;SDS011;62294;48.554;10.202;2023-01-08T00:33:57;15.40;;;7.85;;
73940;SDS011;62294;48.554;10.202;2023-01-08T00:36:24;15.40;;;8.50;;
73940;SDS011;62294;48.554;10.202;2023-01-08T00:38:51;16.05;;;8.07;;
73940;SDS011;62294;48.554;10.202;2023-01-08T00:41:18;16.10;;;7.32;;
73940;SDS011;62294;48.554;10.202;2023-01-08T00:43:44;15.65;;;7.45;;
73940;SDS011;62294;48.554;10.202;2023-01-08T00:46:11;17.40;;;7.25;;
73940;SDS011;62294;48.554;10.202;2023-01-08T00:48:38;13.85;;;7.63;;
73940;SDS011;62294;48.554;10.202;2023-01-08T00:51:05;18.17;;;8.70;;
73940;SDS011;62294;48.554;10.202;2023-01-08T00:53:33;11.98;;;7.18;;
73940;SDS011;62294;48.554;10.202;2023-01-08T00:56:01;16.02;;;7.72;;
73940;SDS011;62294;48.554;10.202;2023-01-08T00:58:28;15.57;;;7.85;;
73940;SDS011;62294;48.554;10.202;2023-01-08T01:00:56;13.73;;;8.25;;
73940;SDS011;62294;48.554;10.202;2023-01-08T01:03:22;11.43;;;6.60;;
73940;SDS011;62294;48.554;10.202;2023-01-08T01:05:49;12.77;;;6.53;;
73940;SDS011;62294;48.554;10.202;2023-01-08T01:08:16;14.38;;;7.90;;
73940;SDS011;62294;48.554;10.202;2023-01-08T01:10:42;13.15;;;6.15;;
73940;SDS011;62294;48.554;10.202;2023-01-08T01:13:09;13.15;;;7.22;;
73940;SDS011;62294;48.554;10.202;2023-01-08T01:15:36;14.63;;;7.35;;
73940;SDS011;62294;48.554;10.202;2023-01-08T01:18:02;12.95;;;6.65;;
73940;SDS011;62294;48.554;10.202;2023-01-08T01:20:29;13.52;;;6.75;;
73940;SDS011;62294;48.554;10.202;2023-01-08T01:22:56;14.63;;;7.90;;
73940;SDS011;62294;48.554;10.202;2023-01-08T01:25:22;12.68;;;6.68;;
73940;SDS011;62294;48.554;10.202;2023-01-08T01:27:49;19.27;;;8.57;;
73940;SDS011;62294;48.554;10.202;2023-01-08T01:30:15;14.02;;;7.60;;
73940;SDS011;62294;48.554;10.202;2023-01-08T01:32:42;12.68;;;6.65;;
73940;SDS011;62294;48.554;10.202;2023-01-08T01:35:08;14.25;;;6.78;;
73940;SDS011;62294;48.554;10.202;2023-01-08T01:37:35;11.90;;;6.72;;
73940;SDS011;62294;48.554;10.202;2023-01-08T01:40:02;12.38;;;6.35;;
73940;SDS011;62294;48.554;10.202;2023-01-08T01:42:29;13.93;;;6.82;;
73940;SDS011;62294;48.554;10.202;2023-01-08T01:45:19;17.08;;;8.45;;
73940;SDS011;62294;48.554;10.202;2023-01-08T01:47:53;12.57;;;6.55;;
73940;SDS011;62294;48.554;10.202;2023-01-08T01:50:31;15.10;;;7.68;;
73940;SDS011;62294;48.554;10.202;2023-01-08T01:53:11;15.93;;;7.55;;
73940;SDS011;62294;48.554;10.202;2023-01-08T01:55:45;20.25;;;9.70;;
73940;SDS011;62294;48.554;10.202;2023-01-08T01:58:14;17.95;;;8.93;;
73940;SDS011;62294;48.554;10.202;2023-01-08T02:00:48;21.05;;;9.93;;
73940;SDS011;62294;48.554;10.202;2023-01-08T02:03:19;18.90;;;9.45;;
73940;SDS011;62294;48.554;10.202;2023-01-08T02:05:53;19.80;;;9.13;;
73940;SDS011;62294;48.554;10.202;2023-01-08T02:08:34;20.05;;;10.38;;
73940;SDS011;62294;48.554;10.202;2023-01-08T02:11:15;13.15;;;7.25;;
73940;SDS011;62294;48.554;10.202;2023-01-08T02:13:49;17.98;;;9.23;;
73940;SDS011;62294;48.554;10.202;2023-01-08T02:16:25;19.50;;;9.18;;
73940;SDS011;62294;48.554;10.202;2023-01-08T02:22:06;13.80;;;9.07;;
73940;SDS011;62294;48.554;10.202;2023-01-08T02:25:00;22.10;;;10.02;;
73940;SDS011;62294;48.554;10.202;2023-01-08T02:27:34;22.05;;;10.63;;
73940;SDS011;62294;48.554;10.202;2023-01-08T02:30:03;17.75;;;9.18;;
73940;SDS011;62294;48.554;10.202;2023-01-08T02:32:38;19.52;;;8.85;;
73940;SDS011;62294;48.554;10.202;2023-01-08T02:35:08;20.83;;;10.63;;
73940;SDS011;62294;48.554;10.202;2023-01-08T02:37:35;20.20;;;10.07;;
73940;SDS011;62294;48.554;10.202;2023-01-08T02:45:45;18.95;;;8.75;;
73940;SDS011;62294;48.554;10.202;2023-01-08T02:48:16;17.73;;;9.52;;
73940;SDS011;62294;48.554;10.202;2023-01-08T02:50:58;21.25;;;9.50;;
73940;SDS011;62294;48.554;10.202;2023-01-08T02:53:31;23.15;;;10.27;;
73940;SDS011;62294;48.554;10.202;2023-01-08T02:56:12;21.98;;;9.52;;
73940;SDS011;62294;48.554;10.202;2023-01-08T02:58:41;19.92;;;9.30;;
73940;SDS011;62294;48.554;10.202;2023-01-08T03:01:10;20.45;;;9.07;;
73940;SDS011;62294;48.554;10.202;2023-01-08T03:03:39;16.52;;;8.20;;
73940;SDS011;62294;48.554;10.202;2023-01-08T03:06:09;19.60;;;8.95;;
73940;SDS011;62294;48.554;10.202;2023-01-08T03:08:40;19.50;;;9.43;;
73940;SDS011;62294;48.554;10.202;2023-01-08T03:11:09;19.73;;;9.23;;
73940;SDS011;62294;48.554;10.202;2023-01-08T03:16:30;16.70;;;7.95;;
73940;SDS011;62294;48.554;10.202;2023-01-08T03:19:04;17.50;;;8.50;;
73940;SDS011;62294;48.554;10.202;2023-01-08T03:21:35;17.83;;;8.13;;
73940;SDS011;62294;48.554;10.202;2023-01-08T03:24:03;17.80;;;8.93;;
73940;SDS011;62294;48.554;10.202;2023-01-08T03:26:32;20.65;;;9.75;;
73940;SDS011;62294;48.554;10.202;2023-01-08T03:29:02;21.45;;;9.30;;
73940;SDS011;62294;48.554;10.202;2023-01-08T03:31:31;16.90;;;7.60;;
73940;SDS011;62294;48.554;10.202;2023-01-08T03:34:01;19.40;;;9.00;;
73940;SDS011;62294;48.554;10.202;2023-01-08T03:36:29;20.67;;;9.70;;
73940;SDS011;62294;48.554;10.202;2023-01-08T03:39:02;18.00;;;8.57;;
73940;SDS011;62294;48.554;10.202;2023-01-08T03:41:41;14.68;;;7.15;;
73940;SDS011;62294;48.554;10.202;2023-01-08T03:44:08;18.85;;;8.60;;
73940;SDS011;62294;48.554;10.202;2023-01-08T03:46:36;13.68;;;7.28;;
73940;SDS011;62294;48.554;10.202;2023-01-08T03:49:07;19.88;;;8.68;;
73940;SDS011;62294;48.554;10.202;2023-01-08T03:51:39;15.98;;;7.75;;
73940;SDS011;62294;48.554;10.202;2023-01-08T03:54:06;14.82;;;8.18;;
73940;SDS011;62294;48.554;10.202;2023-01-08T03:56:38;17.67;;;8.90;;
73940;SDS011;62294;48.554;10.202;2023-01-08T03:59:05;13.85;;;7.82;;
73940;SDS011;62294;48.554;10.202;2023-01-08T04:01:31;13.80;;;7.63;;
73940;SDS011;62294;48.554;10.202;2023-01-08T04:03:58;16.63;;;8.30;;
73940;SDS011;62294;48.554;10.202;2023-01-08T04:06:25;16.10;;;7.97;;
73940;SDS011;62294;48.554;10.202;2023-01-08T04:08:51;19.08;;;9.13;;
73940;SDS011;62294;48.554;10.202;2023-01-08T04:11:18;20.75;;;9.15;;
73940;SDS011;62294;48.554;10.202;2023-01-08T04:13:44;15.13;;;8.15;;
73940;SDS011;62294;48.554;10.202;2023-01-08T04:16:11;18.80;;;8.27;;
73940;SDS011;62294;48.554;10.202;2023-01-08T04:18:37;17.75;;;8.23;;
73940;SDS011;62294;48.554;10.202;2023-01-08T04:21:04;16.65;;;8.80;;
73940;SDS011;62294;48.554;10.202;2023-01-08T04:23:31;15.30;;;7.82;;
73940;SDS011;62294;48.554;10.202;2023-01-08T04:25:57;16.90;;;9.20;;
73940;SDS011;62294;48.554;10.202;2023-01-08T04:28:25;18.15;;;9.55;;
73940;SDS011;62294;48.554;10.202;2023-01-08T04:30:51;19.75;;;8.60;;
73940;SDS011;62294;48.554;10.202;2023-01-08T04:33:18;18.92;;;9.80;;
73940;SDS011;62294;48.554;10.202;2023-01-08T04:35:44;21.92;;;9.77;;
73940;SDS011;62294;48.554;10.202;2023-01-08T04:38:11;19.25;;;9.43;;
73940;SDS011;62294;48.554;10.202;2023-01-08T04:40:38;21.60;;;10.07;;
73940;SDS011;62294;48.554;10.202;2023-01-08T04:43:04;19.00;;;9.88;;
73940;SDS011;62294;48.554;10.202;2023-01-08T04:45:31;19.92;;;10.68;;
73940;SDS011;62294;48.554;10.202;2023-01-08T04:47:57;22.90;;;10.75;;
73940;SDS011;62294;48.554;10.202;2023-01-08T04:50:24;22.48;;;11.38;;
73940;SDS011;62294;48.554;10.202;2023-01-08T04:52:52;21.67;;;11.30;;
73940;SDS011;62294;48.554;10.202;2023-01-08T04:55:19;25.10;;;11.30;;
73940;SDS011;62294;48.554;10.202;2023-01-08T04:57:46;16.85;;;8.32;;
73940;SDS011;62294;48.554;10.202;2023-01-08T05:00:14;24.58;;;10.35;;
73940;SDS011;62294;48.554;10.202;2023-01-08T05:02:41;17.08;;;9.77;;
73940;SDS011;62294;48.554;10.202;2023-01-08T05:05:08;22.13;;;10.85;;
73940;SDS011;62294;48.554;10.202;2023-01-08T05:07:35;22.27;;;10.95;;
73940;SDS011;62294;48.554;10.202;2023-01-08T05:10:02;24.80;;;10.57;;
73940;SDS011;62294;48.554;10.202;2023-01-08T05:12:29;25.88;;;10.77;;
73940;SDS011;62294;48.554;10.202;2023-01-08T05:14:56;23.17;;;10.48;;
73940;SDS011;62294;48.554;10.202;2023-01-08T05:17:22;26.52;;;11.10;;
73940;SDS011;62294;48.554;10.202;2023-01-08T05:19:49;26.20;;;10.23;;
73940;SDS011;62294;48.554;10.202;2023-01-08T05:22:16;23.30;;;10.30;;
73940;SDS011;62294;48.554;10.202;2023-01-08T05:24:42;22.35;;;11.10;;
73940;SDS011;62294;48.554;10.202;2023-01-08T05:27:09;21.38;;;10.43;;
73940;SDS011;62294;48.554;10.202;2023-01-08T05:29:36;24.52;;;10.50;;
73940;SDS011;62294;48.554;10.202;2023-01-08T05:32:03;23.27;;;11.15;;
73940;SDS011;62294;48.554;10.202;2023-01-08T05:34:29;26.83;;;11.25;;
73940;SDS011;62294;48.554;10.202;2023-01-08T05:36:56;22.13;;;10.13;;
73940;SDS011;62294;48.554;10.202;2023-01-08T05:39:22;22.35;;;9.85;;
73940;SDS011;62294;48.554;10.202;2023-01-08T05:41:49;20.48;;;10.40;;
73940;SDS011;62294;48.554;10.202;2023-01-08T05:44:16;20.13;;;10.20;;
73940;SDS011;62294;48.554;10.202;2023-01-08T05:46:42;19.10;;;9.15;;
73940;SDS011;62294;48.554;10.202;2023-01-08T05:49:09;19.80;;;9.82;;
73940;SDS011;62294;48.554;10.202;2023-01-08T05:51:36;17.45;;;8.45;;
73940;SDS011;62294;48.554;10.202;2023-01-08T05:54:02;21.98;;;10.30;;
73940;SDS011;62294;48.554;10.202;2023-01-08T05:56:29;20.35;;;9.95;;
73940;SDS011;62294;48.554;10.202;2023-01-08T05:58:56;18.70;;;8.73;;
73940;SDS011;62294;48.554;10.202;2023-01-08T06:01:22;17.85;;;8.82;;
73940;SDS011;62294;48.554;10.202;2023-01-08T06:03:49;19.13;;;8.88;;
73940;SDS011;62294;48.554;10.202;2023-01-08T06:06:16;19.45;;;9.10;;
73940;SDS011;62294;48.554;10.202;2023-01-08T06:08:43;21.63;;;9.77;;
73940;SDS011;62294;48.554;10.202;2023-01-08T06:11:09;19.30;;;9.55;;
73940;SDS011;62294;48.554;10.202;2023-01-08T06:13:39;17.33;;;9.95;;
73940;SDS011;62294;48.554;10.202;2023-01-08T06:16:08;18.85;;;8.40;;
73940;SDS011;62294;48.554;10.202;2023-01-08T06:18:35;22.17;;;11.00;;
73940;SDS011;62294;48.554;10.202;2023-01-08T06:21:01;25.85;;;12.25;;
73940;SDS011;62294;48.554;10.202;2023-01-08T06:23:32;22.02;;;10.55;;
73940;SDS011;62294;48.554;10.202;2023-01-08T06:26:00;19.45;;;9.30;;
73940;SDS011;62294;48.554;10.202;2023-01-08T06:28:29;23.33;;;10.48;;
73940;SDS011;62294;48.554;10.202;2023-01-08T06:30:57;24.27;;;10.50;;
73940;SDS011;62294;48.554;10.202;2023-01-08T06:33:28;24.95;;;11.35;;
73940;SDS011;62294;48.554;10.202;2023-01-08T06:35:58;25.45;;;10.98;;
73940;SDS011;62294;48.554;10.202;2023-01-08T06:38:29;24.88;;;11.75;;
73940;SDS011;62294;48.554;10.202;2023-01-08T06:40:57;24.98;;;10.55;;
73940;SDS011;62294;48.554;10.202;2023-01-08T06:43:23;23.40;;;11.60;;
73940;SDS011;62294;48.554;10.202;2023-01-08T06:45:54;24.33;;;11.27;;
73940;SDS011;62294;48.554;10.202;2023-01-08T06:48:23;21.67;;;10.77;;
73940;SDS011;62294;48.554;10.202;2023-01-08T06:50:51;25.77;;;11.82;;
73940;SDS011;62294;48.554;10.202;2023-01-08T06:53:18;18.80;;;9.07;;
73940;SDS011;62294;48.554;10.202;2023-01-08T06:55:46;24.42;;;11.25;;
73940;SDS011;62294;48.554;10.202;2023-01-08T06:58:12;25.25;;;11.68;;
73940;SDS011;62294;48.554;10.202;2023-01-08T07:00:39;22.80;;;11.38;;
73940;SDS011;62294;48.554;10.202;2023-01-08T07:03:06;21.00;;;10.30;;
73940;SDS011;62294;48.554;10.202;2023-01-08T07:05:32;19.38;;;10.32;;
73940;SDS011;62294;48.554;10.202;2023-01-08T07:07:59;20.88;;;9.43;;
73940;SDS011;62294;48.554;10.202;2023-01-08T07:10:26;20.05;;;10.40;;
73940;SDS011;62294;48.554;10.202;2023-01-08T07:12:52;20.77;;;11.00;;
73940;SDS011;62294;48.554;10.202;2023-01-08T07:15:19;23.80;;;10.70;;
73940;SDS011;62294;48.554;10.202;2023-01-08T07:17:46;18.65;;;10.50;;
73940;SDS011;62294;48.554;10.202;2023-01-08T07:20:12;18.63;;;9.60;;
73940;SDS011;62294;48.554;10.202;2023-01-08T07:22:39;19.48;;;9.32;;
73940;SDS011;62294;48.554;10.202;2023-01-08T07:25:06;20.08;;;11.43;;
73940;SDS011;62294;48.554;10.202;2023-01-08T07:27:33;25.63;;;12.30;;
73940;SDS011;62294;48.554;10.202;2023-01-08T07:29:59;20.80;;;10.68;;
73940;SDS011;62294;48.554;10.202;2023-01-08T07:32:26;19.50;;;10.80;;
73940;SDS011;62294;48.554;10.202;2023-01-08T07:34:53;18.50;;;11.23;;
73940;SDS011;62294;48.554;10.202;2023-01-08T07:37:19;22.58;;;10.55;;
73940;SDS011;62294;48.554;10.202;2023-01-08T07:39:46;18.73;;;9.90;;
73940;SDS011;62294;48.554;10.202;2023-01-08T07:42:13;17.65;;;9.05;;
73940;SDS011;62294;48.554;10.202;2023-01-08T07:44:39;17.52;;;9.80;;
73940;SDS011;62294;48.554;10.202;2023-01-08T07:47:06;19.60;;;10.27;;
73940;SDS011;62294;48.554;10.202;2023-01-08T07:49:32;22.60;;;11.05;;
73940;SDS011;62294;48.554;10.202;2023-01-08T07:51:59;22.77;;;10.48;;
73940;SDS011;62294;48.554;10.202;2023-01-08T07:54:25;19.63;;;9.90;;
73940;SDS011;62294;48.554;10.202;2023-01-08T07:56:53;21.10;;;9.98;;
73940;SDS011;62294;48.554;10.202;2023-01-08T07:59:19;22.35;;;10.27;;
73940;SDS011;62294;48.554;10.202;2023-01-08T08:01:46;17.73;;;9.63;;
73940;SDS011;62294;48.554;10.202;2023-01-08T08:04:13;22.73;;;10.52;;
73940;SDS011;62294;48.554;10.202;2023-01-08T08:06:40;24.15;;;10.65;;
73940;SDS011;62294;48.554;10.202;2023-01-08T08:09:07;21.00;;;10.50;;
73940;SDS011;62294;48.554;10.202;2023-01-08T08:11:33;21.55;;;11.23;;
73940;SDS011;62294;48.554;10.202;2023-01-08T08:14:00;24.92;;;12.23;;
73940;SDS011;62294;48.554;10.202;2023-01-08T08:16:27;21.92;;;11.77;;
73940;SDS011;62294;48.554;10.202;2023-01-08T08:18:53;26.00;;;11.80;;
73940;SDS011;62294;48.554;10.202;2023-01-08T08:21:20;25.52;;;11.50;;
73940;SDS011;62294;48.554;10.202;2023-01-08T08:23:48;19.48;;;11.00;;
73940;SDS011;62294;48.554;10.202;2023-01-08T08:26:14;31.17;;;13.73;;
73940;SDS011;62294;48.554;10.202;2023-01-08T08:28:41;27.67;;;12.85;;
73940;SDS011;62294;48.554;10.202;2023-01-08T08:31:07;29.88;;;13.50;;
73940;SDS011;62294;48.554;10.202;2023-01-08T08:33:34;32.78;;;14.30;;
73940;SDS011;62294;48.554;10.202;2023-01-08T08:36:01;38.97;;;15.98;;
73940;SDS011;62294;48.554;10.202;2023-01-08T08:38:27;41.55;;;15.90;;
73940;SDS011;62294;48.554;10.202;2023-01-08T08:40:54;41.50;;;16.33;;
73940;SDS011;62294;48.554;10.202;2023-01-08T08:43:20;39.78;;;15.57;;
73940;SDS011;62294;48.554;10.202;2023-01-08T08:45:47;43.15;;;16.02;;
73940;SDS011;62294;48.554;10.202;2023-01-08T08:48:14;29.85;;;13.10;;
73940;SDS011;62294;48.554;10.202;2023-01-08T08:50:42;44.78;;;15.93;;
73940;SDS011;62294;48.554;10.202;2023-01-08T08:53:09;27.52;;;12.68;;
73940;SDS011;62294;48.554;10.202;2023-01-08T08:55:36;26.02;;;13.48;;
73940;SDS011;62294;48.554;10.202;2023-01-08T08:58:04;18.92;;;10.40;;
73940;SDS011;62294;48.554;10.202;2023-01-08T09:00:33;20.77;;;11.60;;
73940;SDS011;62294;48.554;10.202;2023-01-08T09:02:59;21.52;;;11.80;;
73940;SDS011;62294;48.554;10.202;2023-01-08T09:05:26;30.58;;;14.80;;
73940;SDS011;62294;48.554;10.202;2023-01-08T09:07:54;27.48;;;14.70;;
73940;SDS011;62294;48.554;10.202;2023-01-08T09:10:21;31.15;;;16.42;;
73940;SDS011;62294;48.554;10.202;2023-01-08T09:12:48;29.33;;;14.43;;
73940;SDS011;62294;48.554;10.202;2023-01-08T09:15:15;17.50;;;9.05;;
73940;SDS011;62294;48.554;10.202;2023-01-08T09:17:42;26.25;;;12.82;;
73940;SDS011;62294;48.554;10.202;2023-01-08T09:20:10;14.40;;;7.78;;
73940;SDS011;62294;48.554;10.202;2023-01-08T09:22:37;19.20;;;10.52;;
73940;SDS011;62294;48.554;10.202;2023-01-08T09:25:03;19.67;;;8.98;;
73940;SDS011;62294;48.554;10.202;2023-01-08T09:27:30;23.05;;;12.55;;
73940;SDS011;62294;48.554;10.202;2023-01-08T09:29:57;14.80;;;9.25;;
73940;SDS011;62294;48.554;10.202;2023-01-08T09:32:23;5.95;;;3.90;;
73940;SDS011;62294;48.554;10.202;2023-01-08T09:34:50;9.50;;;6.05;;
73940;SDS011;62294;48.554;10.202;2023-01-08T09:37:16;10.40;;;6.45;;
73940;SDS011;62294;48.554;10.202;2023-01-08T09:39:43;10.93;;;5.93;;
73940;SDS011;62294;48.554;10.202;2023-01-08T09:42:20;10.43;;;5.78;;
73940;SDS011;62294;48.554;10.202;2023-01-08T09:44:51;12.75;;;6.70;;
73940;SDS011;62294;48.554;10.202;2023-01-08T09:47:25;8.23;;;4.95;;
73940;SDS011;62294;48.554;10.202;2023-01-08T09:49:58;14.20;;;6.97;;
73940;SDS011;62294;48.554;10.202;2023-01-08T09:52:28;11.82;;;5.93;;
73940;SDS011;62294;48.554;10.202;2023-01-08T09:54:56;17.42;;;9.15;;
73940;SDS011;62294;48.554;10.202;2023-01-08T09:57:23;18.67;;;8.10;;
73940;SDS011;62294;48.554;10.202;2023-01-08T09:59:50;17.98;;;9.68;;
73940;SDS011;62294;48.554;10.202;2023-01-08T10:02:21;11.70;;;6.90;;
73940;SDS011;62294;48.554;10.202;2023-01-08T10:04:57;12.20;;;7.20;;
73940;SDS011;62294;48.554;10.202;2023-01-08T10:07:26;9.88;;;5.95;;
73940;SDS011;62294;48.554;10.202;2023-01-08T10:09:55;14.40;;;8.80;;
73940;SDS011;62294;48.554;10.202;2023-01-08T10:14:54;10.95;;;6.43;;
73940;SDS011;62294;48.554;10.202;2023-01-08T10:20:18;6.68;;;4.50;;
73940;SDS011;62294;48.554;10.202;2023-01-08T10:22:48;6.45;;;4.00;;
73940;SDS011;62294;48.554;10.202;2023-01-08T10:25:17;12.18;;;6.93;;
73940;SDS011;62294;48.554;10.202;2023-01-08T10:30:20;11.13;;;6.75;;
73940;SDS011;62294;48.554;10.202;2023-01-08T10:32:52;12.15;;;6.28;;
73940;SDS011;62294;48.554;10.202;2023-01-08T10:35:22;14.45;;;7.72;;
73940;SDS011;62294;48.554;10.202;2023-01-08T10:37:56;15.85;;;8.88;;
73940;SDS011;62294;48.554;10.202;2023-01-08T10:40:26;17.65;;;9.32;;
73940;SDS011;62294;48.554;10.202;2023-01-08T10:42:56;12.40;;;7.72;;
73940;SDS011;62294;48.554;10.202;2023-01-08T10:45:31;13.98;;;7.70;;
73940;SDS011;62294;48.554;10.202;2023-01-08T10:47:59;13.40;;;7.78;;
73940;SDS011;62294;48.554;10.202;2023-01-08T10:50:29;16.80;;;7.68;;
73940;SDS011;62294;48.554;10.202;2023-01-08T10:53:01;14.93;;;7.65;;
73940;SDS011;62294;48.554;10.202;2023-01-08T10:55:31;18.13;;;9.45;;
73940;SDS011;62294;48.554;10.202;2023-01-08T10:58:02;8.30;;;4.85;;
73940;SDS011;62294;48.554;10.202;2023-01-08T11:00:35;8.45;;;5.47;;
73940;SDS011;62294;48.554;10.202;2023-01-08T11:03:03;12.77;;;6.13;;
73940;SDS011;62294;48.554;10.202;2023-01-08T11:05:33;5.38;;;3.42;;
73940;SDS011;62294;48.554;10.202;2023-01-08T11:08:03;12.77;;;7.25;;
73940;SDS011;62294;48.554;10.202;2023-01-08T11:10:33;10.35;;;6.05;;
73940;SDS011;62294;48.554;10.202;2023-01-08T11:13:02;7.80;;;4.70;;
73940;SDS011;62294;48.554;10.202;2023-01-08T11:15:37;10.20;;;5.63;;
73940;SDS011;62294;48.554;10.202;2023-01-08T11:20:44;12.02;;;5.57;;
73940;SDS011;62294;48.554;10.202;2023-01-08T11:25:44;14.00;;;8.25;;
73940;SDS011;62294;48.554;10.202;2023-01-08T11:28:15;10.52;;;6.22;;
73940;SDS011;62294;48.554;10.202;2023-01-08T11:30:52;12.95;;;7.25;;
73940;SDS011;62294;48.554;10.202;2023-01-08T11:33:26;16.13;;;8.10;;
73940;SDS011;62294;48.554;10.202;2023-01-08T11:36:01;10.80;;;6.78;;
73940;SDS011;62294;48.554;10.202;2023-01-08T11:38:35;11.70;;;6.35;;
73940;SDS011;62294;48.554;10.202;2023-01-08T11:41:08;14.68;;;8.75;;
73940;SDS011;62294;48.554;10.202;2023-01-08T11:44:10;8.55;;;5.38;;
73940;SDS011;62294;48.554;10.202;2023-01-08T11:46:54;12.23;;;7.18;;
73940;SDS011;62294;48.554;10.202;2023-01-08T11:49:46;7.65;;;4.68;;
73940;SDS011;62294;48.554;10.202;2023-01-08T12:03:48;7.93;;;5.03;;
73940;SDS011;62294;48.554;10.202;2023-01-08T12:06:12;8.70;;;4.60;;
73940;SDS011;62294;48.554;10.202;2023-01-08T12:11:31;6.53;;;3.80;;
73940;SDS011;62294;48.554;10.202;2023-01-08T12:17:44;8.00;;;4.68;;
73940;SDS011;62294;48.554;10.202;2023-01-08T12:20:34;4.75;;;2.80;;
73940;SDS011;62294;48.554;10.202;2023-01-08T12:25:51;8.13;;;4.60;;
73940;SDS011;62294;48.554;10.202;2023-01-08T12:28:31;7.35;;;4.13;;
73940;SDS011;62294;48.554;10.202;2023-01-08T12:31:24;8.05;;;4.40;;
73940;SDS011;62294;48.554;10.202;2023-01-08T12:34:08;10.00;;;5.88;;
73940;SDS011;62294;48.554;10.202;2023-01-08T12:36:39;6.32;;;3.47;;
73940;SDS011;62294;48.554;10.202;2023-01-08T12:39:09;6.15;;;4.05;;
73940;SDS011;62294;48.554;10.202;2023-01-08T12:41:41;8.98;;;4.60;;
73940;SDS011;62294;48.554;10.202;2023-01-08T12:44:11;10.13;;;6.03;;
73940;SDS011;62294;48.554;10.202;2023-01-08T12:46:44;7.65;;;3.95;;
73940;SDS011;62294;48.554;10.202;2023-01-08T12:49:13;9.75;;;5.30;;
73940;SDS011;62294;48.554;10.202;2023-01-08T12:51:59;6.18;;;3.47;;
73940;SDS011;62294;48.554;10.202;2023-01-08T13:00:26;6.05;;;3.65;;
73940;SDS011;62294;48.554;10.202;2023-01-08T13:03:03;6.75;;;4.00;;
73940;SDS011;62294;48.554;10.202;2023-01-08T13:05:36;5.35;;;2.95;;
73940;SDS011;62294;48.554;10.202;2023-01-08T13:08:06;7.65;;;3.50;;
73940;SDS011;62294;48.554;10.202;2023-01-08T13:10:50;6.68;;;2.92;;
73940;SDS011;62294;48.554;10.202;2023-01-08T13:13:29;8.43;;;3.42;;
73940;SDS011;62294;48.554;10.202;2023-01-08T13:16:05;5.13;;;3.13;;
73940;SDS011;62294;48.554;10.202;2023-01-08T13:18:33;5.03;;;3.03;;
73940;SDS011;62294;48.554;10.202;2023-01-08T13:21:01;5.00;;;2.80;;
73940;SDS011;62294;48.554;10.202;2023-01-08T13:23:33;7.72;;;2.92;;
73940;SDS011;62294;48.554;10.202;2023-01-08T13:26:02;4.25;;;2.72;;
73940;SDS011;62294;48.554;10.202;2023-01-08T13:31:07;3.72;;;2.13;;
73940;SDS011;62294;48.554;10.202;2023-01-08T13:33:40;5.13;;;2.50;;
73940;SDS011;62294;48.554;10.202;2023-01-08T13:38:38;3.75;;;2.47;;
73940;SDS011;62294;48.554;10.202;2023-01-08T13:41:22;3.30;;;2.05;;
73940;SDS011;62294;48.554;10.202;2023-01-08T13:44:01;3.42;;;2.03;;
73940;SDS011;62294;48.554;10.202;2023-01-08T13:46:38;4.38;;;2.70;;
73940;SDS011;62294;48.554;10.202;2023-01-08T13:49:06;3.25;;;2.13;;
73940;SDS011;62294;48.554;10.202;2023-01-08T13:51:42;3.85;;;2.30;;
73940;SDS011;62294;48.554;10.202;2023-01-08T13:56:37;3.05;;;1.85;;
73940;SDS011;62294;48.554;10.202;2023-01-08T13:59:05;5.47;;;2.60;;
73940;SDS011;62294;48.554;10.202;2023-01-08T14:01:38;3.17;;;1.98;;
73940;SDS011;62294;48.554;10.202;2023-01-08T14:04:04;3.90;;;2.15;;
73940;SDS011;62294;48.554;10.202;2023-01-08T14:06:31;4.10;;;1.95;;
73940;SDS011;62294;48.554;10.202;2023-01-08T14:09:00;5.03;;;2.65;;
73940;SDS011;62294;48.554;10.202;2023-01-08T14:14:13;6.22;;;3.35;;
73940;SDS011;62294;48.554;10.202;2023-01-08T14:16:42;5.25;;;3.20;;
73940;SDS011;62294;48.554;10.202;2023-01-08T14:19:10;5.28;;;2.83;;
73940;SDS011;62294;48.554;10.202;2023-01-08T14:21:49;4.40;;;3.22;;
73940;SDS011;62294;48.554;10.202;2023-01-08T14:24:16;3.72;;;1.98;;
73940;SDS011;62294;48.554;10.202;2023-01-08T14:26:52;5.80;;;2.55;;
73940;SDS011;62294;48.554;10.202;2023-01-08T14:29:24;3.65;;;2.50;;
73940;SDS011;62294;48.554;10.202;2023-01-08T14:31:54;4.80;;;2.58;;
73940;SDS011;62294;48.554;10.202;2023-01-08T14:34:23;7.20;;;2.78;;
73940;SDS011;62294;48.554;10.202;2023-01-08T14:36:54;4.80;;;2.80;;
73940;SDS011;62294;48.554;10.202;2023-01-08T14:39:25;7.70;;;3.50;;
73940;SDS011;62294;48.554;10.202;2023-01-08T14:42:20;9.25;;;4.47;;
73940;SDS011;62294;48.554;10.202;2023-01-08T14:47:48;6.47;;;4.07;;
73940;SDS011;62294;48.554;10.202;2023-01-08T14:52:54;5.43;;;2.90;;
73940;SDS011;62294;48.554;10.202;2023-01-08T14:55:25;5.95;;;2.95;;
73940;SDS011;62294;48.554;10.202;2023-01-08T14:57:54;5.18;;;3.10;;
73940;SDS011;62294;48.554;10.202;2023-01-08T15:00:26;5.53;;;2.88;;
73940;SDS011;62294;48.554;10.202;2023-01-08T15:02:55;5.82;;;2.95;;
73940;SDS011;62294;48.554;10.202;2023-01-08T15:05:25;3.92;;;2.55;;
73940;SDS011;62294;48.554;10.202;2023-01-08T15:07:57;8.30;;;3.40;;
73940;SDS011;62294;48.554;10.202;2023-01-08T15:10:36;10.90;;;5.47;;
73940;SDS011;62294;48.554;10.202;2023-01-08T15:13:05;6.03;;;3.35;;
73940;SDS011;62294;48.554;10.202;2023-01-08T15:15:51;6.25;;;3.50;;
73940;SDS011;62294;48.554;10.202;2023-01-08T15:18:20;5.90;;;3.38;;
73940;SDS011;62294;48.554;10.202;2023-01-08T15:20:47;8.02;;;3.65;;
73940;SDS011;62294;48.554;10.202;2023-01-08T15:23:25;5.93;;;3.13;;
73940;SDS011;62294;48.554;10.202;2023-01-08T15:25:57;5.78;;;3.03;;
73940;SDS011;62294;48.554;10.202;2023-01-08T15:28:24;7.50;;;4.15;;
73940;SDS011;62294;48.554;10.202;2023-01-08T15:30:51;5.90;;;3.30;;
73940;SDS011;62294;48.554;10.202;2023-01-08T15:33:22;10.75;;;4.60;;
73940;SDS011;62294;48.554;10.202;2023-01-08T15:35:51;6.90;;;3.53;;
73940;SDS011;62294;48.554;10.202;2023-01-08T15:38:18;6.55;;;3.35;;
73940;SDS011;62294;48.554;10.202;2023-01-08T15:40:49;7.85;;;4.22;;
73940;SDS011;62294;48.554;10.202;2023-01-08T15:43:18;7.55;;;3.80;;